Weather Conditions for:
Los Angeles, Los Angeles International Airport, CA (KLAX)

Elev: 125 ft; Latitude: 33.93806; Longitude: -118.38889

Time  Temp Relative Humidity Wind Direction Wind Speed
(PDT) (f) (%) (mph)
11 May 9:53 pm PDT 62 65 W 7
11 May 8:53 pm PDT 67 47 W 10
11 May 7:53 pm PDT 68 40 W 16
11 May 6:53 pm PDT 70 36 W 21G28
11 May 5:53 pm PDT 71 34 W 23G30
11 May 4:53 pm PDT 72 34 W 26G32
11 May 3:53 pm PDT 70 41 WSW 22
11 May 2:53 pm PDT 72 38 WSW 25G32
11 May 2:15 pm PDT 75 29 W 20G32
11 May 1:53 pm PDT 80 20 SSE 10G21
11 May 1:49 pm PDT 82 15 SE 15G22
11 May 12:53 pm PDT 84 4 NNE 13G21
11 May 11:53 am PDT 81 5 N 16G25
11 May 10:53 am PDT 79 8 NNE 9G20
11 May 9:53 am PDT 76 11 N 10G21
11 May 8:53 am PDT 71 19 NW 7
11 May 7:53 am PDT 68 28 NNW 12G21
11 May 6:53 am PDT 65 30 N 13G21
11 May 5:53 am PDT 65 28 WNW 12
11 May 4:53 am PDT 65 28 WNW 9
11 May 3:53 am PDT 66 28 NW 17
11 May 2:53 am PDT 67 26 NNW 17G32
11 May 2:01 am PDT 68 24 N 23G36
11 May 1:53 am PDT 68 24 N 18G32
11 May 12:53 am PDT 67 36 WNW 9

http://www.wrh.noaa.gov/mesowest/getobext.php?wfo=lox&sid=KLAX&num=168&raw=0&dbn=m